createdAt,value
2022-12-19T00:00:32.769Z,101839.53
2022-12-19T00:03:00.756Z,101831.03
2022-12-19T00:05:28.946Z,101818.66
2022-12-19T00:07:57.176Z,101823.78
2022-12-19T00:10:26.896Z,101825.41
2022-12-19T00:12:54.840Z,101811.88
2022-12-19T00:15:22.838Z,101813.09
2022-12-19T00:17:52.169Z,101809.81
2022-12-19T00:20:20.035Z,101809.88
2022-12-19T00:22:48.091Z,101803.69
2022-12-19T00:25:23.138Z,101805.47
2022-12-19T00:27:51.445Z,101774.34
2022-12-19T00:30:19.385Z,101766.13
2022-12-19T00:32:47.708Z,101756.50
2022-12-19T00:35:17.543Z,101747.13
2022-12-19T00:37:49.684Z,101750.56
2022-12-19T00:40:18.537Z,101746.03
2022-12-19T00:42:53.165Z,101733.47
2022-12-19T00:45:21.620Z,101738.91
2022-12-19T00:47:49.470Z,101722.91
2022-12-19T00:50:18.787Z,101726.00
2022-12-19T00:52:46.712Z,101718.25
2022-12-19T00:55:19.403Z,101716.88
2022-12-19T00:57:47.994Z,101714.25
2022-12-19T01:00:17.950Z,101712.75
2022-12-19T01:02:46.589Z,101709.19
2022-12-19T01:05:14.722Z,101720.56
2022-12-19T01:07:44.051Z,101727.00
2022-12-19T01:10:12.052Z,101722.50
2022-12-19T01:12:47.772Z,101696.00
2022-12-19T01:15:21.285Z,101683.75
2022-12-19T01:17:49.323Z,101700.56
2022-12-19T01:20:21.354Z,101695.75
2022-12-19T01:23:00.465Z,101695.25
2022-12-19T01:25:28.780Z,101694.13
2022-12-19T01:27:57.773Z,101698.28
2022-12-19T01:30:26.361Z,101690.38
2022-12-19T01:32:57.618Z,101695.31
2022-12-19T01:35:28.017Z,101687.94
2022-12-19T01:38:08.207Z,101676.13
2022-12-19T01:40:38.515Z,101664.59
2022-12-19T01:43:07.770Z,101664.03
2022-12-19T01:45:43.648Z,101662.63
2022-12-19T01:48:18.592Z,101657.03
2022-12-19T01:51:00.613Z,101653.47
2022-12-19T01:53:36.654Z,101659.63
2022-12-19T01:56:17.324Z,101667.09
2022-12-19T01:58:47.050Z,101654.94
2022-12-19T02:01:17.297Z,101655.97
2022-12-19T02:03:46.820Z,101648.78
2022-12-19T02:06:15.700Z,101643.16
2022-12-19T02:08:47.169Z,101634.00
2022-12-19T02:11:16.416Z,101636.75
2022-12-19T02:13:44.889Z,101619.59
2022-12-19T02:16:25.186Z,101619.19
2022-12-19T02:19:05.481Z,101624.50
2022-12-19T02:21:43.773Z,101627.00
2022-12-19T02:24:44.334Z,101624.88
2022-12-19T02:27:40.206Z,101631.59
2022-12-19T05:49:16.952Z,101403.97
2022-12-19T05:51:50.391Z,101400.22
2022-12-19T05:54:19.011Z,101398.16
2022-12-19T05:56:47.053Z,101396.25
2022-12-19T05:59:15.139Z,101390.31
2022-12-19T06:01:43.210Z,101386.97
2022-12-19T06:04:11.456Z,101387.41
2022-12-19T06:06:40.839Z,101377.28
2022-12-19T06:09:09.021Z,101377.81
2022-12-19T06:11:36.924Z,101368.34
2022-12-19T06:14:08.516Z,101366.16
2022-12-19T06:16:36.626Z,101373.94
2022-12-19T06:19:04.584Z,101370.38
2022-12-19T06:21:32.546Z,101375.88
2022-12-19T06:24:02.261Z,101368.72
2022-12-19T06:26:31.166Z,101374.13
2022-12-19T06:28:59.158Z,101376.81
2022-12-19T06:31:27.216Z,101365.84
2022-12-19T06:33:56.832Z,101361.53
2022-12-19T06:36:26.475Z,101368.00
2022-12-19T06:38:57.714Z,101368.50
2022-12-19T06:41:45.835Z,101363.50
2022-12-19T06:44:15.964Z,101356.00
2022-12-19T06:46:44.967Z,101351.16
2022-12-19T06:49:13.505Z,101351.06
2022-12-19T06:51:41.554Z,101347.50
2022-12-19T06:54:10.979Z,101349.41
2022-12-19T06:56:41.687Z,101340.34
2022-12-19T06:59:13.477Z,101338.44
2022-12-19T07:01:53.569Z,101330.94
2022-12-19T07:04:26.293Z,101326.25
2022-12-19T07:06:54.435Z,101330.78
2022-12-19T07:09:22.803Z,101326.88
2022-12-19T07:11:52.136Z,101330.34
2022-12-19T07:14:20.163Z,101337.66
2022-12-19T07:16:50.406Z,101339.84
2022-12-19T07:19:18.998Z,101349.13
2022-12-19T07:21:46.998Z,101337.19
2022-12-19T07:24:16.146Z,101336.56
2022-12-19T07:26:45.350Z,101342.09
2022-12-19T07:29:15.614Z,101345.06
2022-12-19T07:31:44.009Z,101333.41
2022-12-19T07:34:12.021Z,101334.16
2022-12-19T07:36:40.064Z,101331.06
2022-12-19T07:39:08.028Z,101342.81
2022-12-19T07:41:38.094Z,101337.66
2022-12-19T07:44:06.645Z,101325.34
2022-12-19T07:46:36.308Z,101323.31
2022-12-19T07:49:04.532Z,101324.66
2022-12-19T07:51:32.400Z,101326.88
2022-12-19T07:54:00.440Z,101326.88
2022-12-19T07:56:28.935Z,101320.84
2022-12-19T07:58:57.080Z,101332.84
2022-12-19T08:01:28.168Z,101326.72
2022-12-19T08:03:59.042Z,101329.91
2022-12-19T08:06:27.464Z,101331.06
2022-12-19T08:08:56.100Z,101330.25
2022-12-19T08:11:27.739Z,101332.19
2022-12-19T08:13:56.618Z,101333.78
2022-12-19T08:16:26.960Z,101323.94
2022-12-19T08:18:55.891Z,101330.94
2022-12-19T08:21:26.025Z,101320.53
2022-12-19T08:23:54.171Z,101322.28
2022-12-19T08:26:25.663Z,101325.44
2022-12-19T08:28:54.689Z,101325.84
2022-12-19T08:31:25.098Z,101322.50
2022-12-19T08:33:54.080Z,101322.59
2022-12-19T08:36:23.228Z,101317.00
2022-12-19T08:38:53.137Z,101316.19
2022-12-19T08:41:21.457Z,101323.13
2022-12-19T08:43:51.255Z,101325.16
2022-12-19T08:46:19.486Z,101318.09
2022-12-19T08:48:47.816Z,101329.16
2022-12-19T08:51:17.007Z,101327.13
2022-12-19T08:53:46.443Z,101318.78
2022-12-19T08:56:18.437Z,101319.66
2022-12-19T08:58:47.085Z,101319.19
2022-12-19T09:01:19.346Z,101323.75
2022-12-19T09:04:27.928Z,101327.72
2022-12-19T09:06:36.819Z,101329.66
2022-12-19T09:09:05.883Z,101332.38
2022-12-19T09:11:39.193Z,101324.53
2022-12-19T09:14:21.065Z,101330.66
2022-12-19T09:16:50.081Z,101319.88
2022-12-19T09:19:18.347Z,101325.88
2022-12-19T09:21:46.428Z,101324.03
2022-12-19T09:24:14.663Z,101320.97
2022-12-19T09:26:44.891Z,101327.03
2022-12-19T09:29:19.610Z,101339.19
2022-12-19T09:31:51.175Z,101337.38
2022-12-19T09:34:29.983Z,101345.47
2022-12-19T09:37:07.382Z,101331.72
2022-12-19T09:39:36.174Z,101345.00
2022-12-19T09:42:44.227Z,101327.66
2022-12-19T09:45:31.926Z,101331.72
2022-12-19T09:48:01.907Z,101329.63
2022-12-19T09:50:44.852Z,101328.06
2022-12-19T09:53:20.247Z,101334.66
2022-12-19T09:55:49.622Z,101333.56
2022-12-19T09:58:32.006Z,101328.88
2022-12-19T10:01:07.442Z,101333.78
2022-12-19T10:03:40.207Z,101347.72
2022-12-19T10:07:11.271Z,101344.47
2022-12-19T10:10:16.537Z,101347.69
2022-12-19T10:12:38.589Z,101344.47
2022-12-19T10:15:07.684Z,101351.69
2022-12-19T10:17:51.913Z,101341.53
2022-12-19T10:20:28.163Z,101334.84
2022-12-19T10:23:07.223Z,101335.22
2022-12-19T10:25:51.856Z,101346.53
2022-12-19T10:28:42.034Z,101352.31
2022-12-19T10:31:22.384Z,101345.53
2022-12-19T10:33:58.372Z,101348.97
2022-12-19T10:37:03.988Z,101340.59
2022-12-19T10:39:25.280Z,101343.13
2022-12-19T10:41:58.212Z,101330.84
2022-12-19T10:44:29.461Z,101335.88
2022-12-19T10:46:58.973Z,101329.22
2022-12-19T10:49:28.449Z,101322.16
2022-12-19T10:52:01.405Z,101341.88
2022-12-19T10:54:41.035Z,101320.66
2022-12-19T10:57:26.139Z,101323.72
2022-12-19T11:00:01.735Z,101336.81
2022-12-19T11:02:44.597Z,101339.16
2022-12-19T11:05:26.565Z,101324.56
2022-12-19T11:08:18.660Z,101316.91
2022-12-19T11:12:35.788Z,101313.88
2022-12-19T11:19:22.143Z,101315.22
2022-12-19T11:23:51.989Z,101320.81
2022-12-19T11:29:17.531Z,101326.06
2022-12-19T11:29:43.287Z,101322.53
2022-12-19T11:30:25.889Z,101307.59
2022-12-19T11:30:37.986Z,101325.91
2022-12-19T11:34:03.085Z,101303.25
2022-12-19T11:36:39.046Z,101300.28
2022-12-19T11:39:16.743Z,101311.84
2022-12-19T11:41:51.966Z,101294.28
2022-12-19T11:44:30.187Z,101293.03
2022-12-19T11:47:06.856Z,101301.69
2022-12-19T11:49:41.556Z,101304.59
2022-12-19T11:53:02.195Z,101297.09
2022-12-19T11:55:18.883Z,101297.91
2022-12-19T11:57:47.652Z,101299.88
2022-12-19T12:00:20.435Z,101303.50
2022-12-19T12:03:08.941Z,101296.28
2022-12-19T12:05:47.120Z,101299.00
2022-12-19T12:12:33.463Z,101302.66
2022-12-19T12:17:28.995Z,101297.91
2022-12-19T12:18:49.170Z,101294.97
2022-12-19T12:27:47.379Z,101295.59
2022-12-19T12:31:40.036Z,101284.44
2022-12-19T12:31:49.890Z,101282.38
2022-12-19T12:31:51.877Z,101292.22
2022-12-19T12:31:57.584Z,101273.84
2022-12-19T12:35:33.637Z,101282.03
2022-12-19T12:38:36.268Z,101288.41
2022-12-19T12:41:09.158Z,101264.75
2022-12-19T12:43:54.942Z,101282.88
2022-12-19T12:46:28.333Z,101266.88
2022-12-19T12:49:02.986Z,101273.00
2022-12-19T12:51:33.279Z,101280.84
2022-12-19T12:54:07.481Z,101269.00
2022-12-19T12:56:36.503Z,101266.03
2022-12-19T12:59:19.946Z,101266.72
2022-12-19T13:01:52.118Z,101262.63
2022-12-19T13:04:27.426Z,101264.19
2022-12-19T13:07:19.950Z,101271.75
2022-12-19T13:09:55.617Z,101261.34
2022-12-19T13:12:45.664Z,101255.19
2022-12-19T13:15:39.772Z,101253.47
2022-12-19T13:18:14.406Z,101258.16
2022-12-19T13:20:48.027Z,101256.16
2022-12-19T13:23:23.805Z,101251.22
2022-12-19T13:25:55.050Z,101250.22
2022-12-19T13:28:41.674Z,101265.63
2022-12-19T13:31:22.968Z,101249.19
2022-12-19T13:34:20.246Z,101247.78
2022-12-19T13:39:48.862Z,101244.03
2022-12-19T13:40:08.790Z,101238.91
2022-12-19T13:43:09.534Z,101239.78
2022-12-19T13:45:49.084Z,101228.94
2022-12-19T13:48:25.650Z,101223.94
2022-12-19T13:50:54.461Z,101224.53
2022-12-19T13:53:24.949Z,101213.78
2022-12-19T13:55:56.017Z,101207.78
2022-12-19T13:58:29.865Z,101220.53
2022-12-19T14:01:04.749Z,101219.06
2022-12-19T14:03:39.722Z,101224.09
2022-12-19T14:06:19.737Z,101220.22
2022-12-19T14:08:59.288Z,101218.25
2022-12-19T14:13:38.401Z,101217.38
2022-12-19T14:15:12.181Z,101212.22
2022-12-19T14:17:38.438Z,101207.38
2022-12-19T14:22:01.715Z,101224.25
2022-12-19T14:23:11.675Z,101206.22
2022-12-19T14:28:21.682Z,101201.53
2022-12-19T14:28:41.598Z,101202.94
2022-12-19T14:31:15.006Z,101203.78
2022-12-19T14:34:04.213Z,101197.78
2022-12-19T14:36:34.251Z,101198.53
2022-12-19T14:39:25.134Z,101195.53
2022-12-19T14:42:19.242Z,101193.09
2022-12-19T14:52:51.858Z,101189.22
2022-12-19T14:54:16.119Z,101189.66
2022-12-19T14:54:25.524Z,101195.66
2022-12-19T14:54:37.843Z,101196.91
2022-12-19T14:59:02.759Z,101196.06
2022-12-19T15:01:33.712Z,101200.09
2022-12-19T15:04:50.875Z,101201.06
2022-12-19T15:07:09.586Z,101196.09
2022-12-19T15:11:06.501Z,101197.22
2022-12-19T15:14:48.944Z,101190.97
2022-12-19T15:16:03.388Z,101194.78
2022-12-19T15:18:40.366Z,101197.09
2022-12-19T15:21:13.515Z,101194.97
2022-12-19T15:23:42.200Z,101194.22
2022-12-19T15:26:15.694Z,101194.78
2022-12-19T15:28:47.893Z,101202.94
2022-12-19T15:31:26.892Z,101205.81
2022-12-19T15:36:47.546Z,101202.53
2022-12-19T15:39:16.100Z,101198.22
2022-12-19T15:41:46.291Z,101213.25
2022-12-19T15:44:20.300Z,101189.38
2022-12-19T15:46:50.012Z,101211.09
2022-12-19T15:49:20.594Z,101202.66
2022-12-19T15:51:51.417Z,101212.50
2022-12-19T15:57:18.381Z,101216.81
2022-12-19T15:59:47.050Z,101214.53
2022-12-19T16:02:24.207Z,101212.41
2022-12-19T16:04:59.757Z,101216.38
2022-12-19T16:07:35.421Z,101215.66
2022-12-19T16:10:05.416Z,101222.81
2022-12-19T16:12:38.041Z,101215.66
2022-12-19T16:15:08.759Z,101210.22
2022-12-19T16:17:37.008Z,101212.53
2022-12-19T16:20:15.388Z,101209.66
2022-12-19T16:22:44.884Z,101211.66
2022-12-19T16:25:13.841Z,101199.81
2022-12-19T16:27:43.159Z,101198.78
2022-12-19T16:30:20.175Z,101202.81
2022-12-19T16:32:48.390Z,101206.81
2022-12-19T16:35:34.377Z,101203.06
2022-12-19T16:38:09.327Z,101200.81
2022-12-19T16:40:37.686Z,101209.81
2022-12-19T16:43:07.630Z,101217.47
2022-12-19T16:45:35.893Z,101226.16
2022-12-19T16:48:03.859Z,101211.44
2022-12-19T16:50:32.955Z,101220.16
2022-12-19T16:53:00.859Z,101229.13
2022-12-19T16:55:30.155Z,101207.59
2022-12-19T16:57:59.045Z,101207.91
2022-12-19T17:00:27.630Z,101199.94
2022-12-19T17:03:01.383Z,101202.06
2022-12-19T17:05:31.668Z,101176.38
2022-12-19T17:08:00.718Z,101179.09
2022-12-19T17:10:32.665Z,101178.53
2022-12-19T17:13:03.668Z,101170.78
2022-12-19T17:15:35.376Z,101177.50
2022-12-19T17:18:05.693Z,101207.03
2022-12-19T17:20:39.660Z,101206.59
2022-12-19T17:23:15.919Z,101190.19
2022-12-19T17:25:45.783Z,101182.63
2022-12-19T17:28:14.204Z,101194.91
2022-12-19T17:30:45.402Z,101190.63
2022-12-19T17:33:15.464Z,101192.03
2022-12-19T17:35:46.345Z,101185.88
2022-12-19T17:38:17.485Z,101187.91
2022-12-19T17:40:47.055Z,101183.06
2022-12-19T17:43:15.205Z,101188.63
2022-12-19T17:45:43.410Z,101188.34
2022-12-19T17:48:20.567Z,101179.91
2022-12-19T17:50:48.609Z,101187.94
2022-12-19T17:53:17.243Z,101199.34
2022-12-19T17:56:37.418Z,101191.78
2022-12-19T17:59:09.247Z,101185.34
2022-12-19T18:01:41.630Z,101190.94
2022-12-19T18:04:14.713Z,101185.66
2022-12-19T18:06:43.317Z,101167.78
2022-12-19T18:09:19.426Z,101184.38
2022-12-19T18:11:48.092Z,101182.69
2022-12-19T18:14:18.164Z,101181.66
2022-12-19T18:16:47.255Z,101183.66
2022-12-19T18:19:19.089Z,101173.53
2022-12-19T18:21:47.506Z,101185.63
2022-12-19T18:24:16.375Z,101185.22
2022-12-19T18:26:44.723Z,101185.63
2022-12-19T18:29:13.226Z,101190.38
2022-12-19T18:31:50.022Z,101176.78
2022-12-19T18:34:21.649Z,101187.75
2022-12-19T18:36:49.930Z,101181.06
2022-12-19T18:39:21.634Z,101180.38
2022-12-19T18:41:50.304Z,101188.78
2022-12-19T18:44:18.732Z,101190.81
2022-12-19T18:46:50.124Z,101186.09
2022-12-19T18:49:18.535Z,101190.91
2022-12-19T18:51:46.784Z,101190.75
2022-12-19T18:54:17.162Z,101195.19
2022-12-19T18:56:45.537Z,101191.00
2022-12-19T18:59:14.307Z,101189.88
2022-12-19T19:01:44.426Z,101190.75
2022-12-19T19:04:17.510Z,101203.34
2022-12-19T19:06:50.864Z,101188.19
2022-12-19T19:09:21.450Z,101197.03
2022-12-19T19:12:08.027Z,101206.38
2022-12-19T19:14:36.131Z,101204.59
2022-12-19T19:17:05.729Z,101193.34
2022-12-19T19:19:35.038Z,101205.75
2022-12-19T19:22:03.003Z,101198.78
2022-12-19T19:24:31.232Z,101202.88
2022-12-19T19:26:59.144Z,101212.75
2022-12-19T19:29:27.092Z,101210.63
2022-12-19T19:31:54.992Z,101209.44
2022-12-19T19:34:27.991Z,101207.28
2022-12-19T19:36:59.859Z,101191.72
2022-12-19T19:39:28.556Z,101208.72
2022-12-19T19:41:57.127Z,101205.41
2022-12-19T19:44:25.058Z,101196.56
2022-12-19T19:46:52.961Z,101205.00
2022-12-19T19:49:22.302Z,101201.16
2022-12-19T19:51:50.493Z,101197.44
2022-12-19T19:54:19.846Z,101197.59
2022-12-19T19:56:47.868Z,101214.25
2022-12-19T19:59:16.148Z,101208.44
2022-12-19T20:01:45.017Z,101208.31
2022-12-19T20:04:13.361Z,101213.03
2022-12-19T20:06:41.272Z,101216.72
2022-12-19T20:09:09.423Z,101218.16
2022-12-19T20:11:38.791Z,101210.13
2022-12-19T20:14:06.824Z,101224.72
2022-12-19T20:16:34.804Z,101228.72
2022-12-19T20:19:02.878Z,101230.16
2022-12-19T20:21:30.925Z,101240.63
2022-12-19T20:23:58.830Z,101226.75
2022-12-19T20:26:26.827Z,101234.47
2022-12-19T20:28:56.129Z,101237.03
2022-12-19T20:31:25.177Z,101236.50
2022-12-19T20:33:56.979Z,101243.63
2022-12-19T20:36:26.166Z,101246.34
2022-12-19T20:38:54.264Z,101248.06
2022-12-19T20:41:22.449Z,101233.78
2022-12-19T20:43:52.438Z,101239.09
2022-12-19T20:46:23.625Z,101240.34
2022-12-19T20:48:52.687Z,101243.81
2022-12-19T20:51:22.653Z,101231.22
2022-12-19T20:53:53.525Z,101231.81
2022-12-19T20:56:23.323Z,101230.94
2022-12-19T20:58:51.703Z,101227.09
2022-12-19T21:01:23.485Z,101232.78
2022-12-19T21:03:52.579Z,101222.50
2022-12-19T21:06:25.456Z,101239.78
2022-12-19T21:08:53.859Z,101228.09
2022-12-19T21:11:22.593Z,101223.94
2022-12-19T21:13:50.596Z,101227.81
2022-12-19T21:16:21.948Z,101223.38
2022-12-19T21:18:51.657Z,101230.66
2022-12-19T21:21:22.316Z,101228.66
2022-12-19T21:23:51.048Z,101223.66
2022-12-19T21:26:19.863Z,101211.09
2022-12-19T21:28:48.215Z,101212.09
2022-12-19T21:31:18.304Z,101211.81
2022-12-19T21:33:47.877Z,101218.22
2022-12-19T21:36:19.176Z,101209.69
2022-12-19T21:38:47.631Z,101225.81
2022-12-19T21:41:20.739Z,101224.09
2022-12-19T21:43:52.538Z,101221.25
2022-12-19T21:46:23.555Z,101214.06
2022-12-19T21:48:54.873Z,101209.38
2022-12-19T21:51:25.623Z,101209.78
2022-12-19T21:53:55.866Z,101210.22
2022-12-19T21:56:26.170Z,101203.34
2022-12-19T21:58:55.678Z,101213.66
2022-12-19T22:01:24.658Z,101221.09
2022-12-19T22:03:54.834Z,101218.06
2022-12-19T22:06:28.442Z,101219.91
2022-12-19T22:08:57.668Z,101214.19
2022-12-19T22:11:26.185Z,101215.34
2022-12-19T22:13:54.820Z,101214.78
2022-12-19T22:16:23.052Z,101214.91
2022-12-19T22:18:53.071Z,101201.91
2022-12-19T22:21:22.702Z,101199.75
2022-12-19T22:23:50.868Z,101198.88
2022-12-19T22:26:21.844Z,101189.84
2022-12-19T22:28:52.509Z,101193.28
2022-12-19T22:31:23.611Z,101189.25
2022-12-19T22:33:54.926Z,101187.41
2022-12-19T22:36:28.279Z,101194.69
2022-12-19T22:38:57.987Z,101194.50
2022-12-19T22:41:26.832Z,101191.09
2022-12-19T22:43:55.358Z,101189.94
2022-12-19T22:46:26.212Z,101204.63
2022-12-19T22:48:56.432Z,101190.13
2022-12-19T22:51:26.929Z,101193.84
2022-12-19T22:53:55.554Z,101184.94
2022-12-19T22:56:26.237Z,101187.13
2022-12-19T22:58:57.609Z,101187.06
2022-12-19T23:01:29.137Z,101188.22
2022-12-19T23:04:01.981Z,101184.66
2022-12-19T23:06:33.754Z,101203.56
2022-12-19T23:09:03.372Z,101192.38
2022-12-19T23:11:34.841Z,101212.56
2022-12-19T23:14:04.007Z,101203.56
2022-12-19T23:16:32.110Z,101199.66
2022-12-19T23:19:00.125Z,101190.81
2022-12-19T23:21:28.937Z,101192.41
2022-12-19T23:23:58.601Z,101188.16
2022-12-19T23:26:28.967Z,101182.22
2022-12-19T23:28:58.972Z,101185.63
2022-12-19T23:31:28.662Z,101195.63
2022-12-19T23:33:57.390Z,101187.19
2022-12-19T23:37:08.194Z,101194.16
2022-12-19T23:39:18.392Z,101187.31
2022-12-19T23:41:46.283Z,101178.78
2022-12-19T23:44:14.356Z,101178.25
2022-12-19T23:46:42.678Z,101175.28
2022-12-19T23:49:10.838Z,101175.00
2022-12-19T23:51:38.812Z,101168.63
2022-12-19T23:54:08.901Z,101165.41
2022-12-19T23:56:41.492Z,101172.72
2022-12-19T23:59:12.087Z,101168.75
